Time;durP1;ratioP1;P1;durP2;ratioP2;P2;SDS_P1;SDS_P2;PMS_P1;PMS_P2;Temp;Humidity;BMP_temperature;BMP_pressure;BME280_temperature;BME280_humidity;BME280_pressure;Samples;Min_cycle;Max_cycle;Signal;HPM_P1;HPM_P2
2023/06/21 00:01:38;;;;;;;39.60;31.00;;;;;;;28.05;51.26;100054.20;108136;1257;72934;-69
2023/06/21 00:04:05;;;;;;;37.60;28.90;;;;;;;28.38;50.45;100055.16;107948;1261;61778;-69
2023/06/21 00:06:34;;;;;;;36.40;30.20;;;;;;;28.45;50.11;100056.64;108189;1254;60339;-70
2023/06/21 00:09:05;;;;;;;40.50;30.90;;;;;;;28.55;49.96;100059.56;108225;1254;74004;-70
2023/06/21 00:11:32;;;;;;;36.00;28.40;;;;;;;28.71;49.78;100058.39;107997;1252;69143;-69
2023/06/21 00:13:58;;;;;;;35.10;29.40;;;;;;;28.79;49.45;100057.60;108166;1256;72979;-70
2023/06/21 00:16:25;;;;;;;38.20;29.90;;;;;;;28.64;49.85;100059.09;108107;1254;61865;-68
2023/06/21 00:18:52;;;;;;;40.00;29.80;;;;;;;28.59;49.90;100056.85;108159;1254;61133;-69
2023/06/21 00:21:18;;;;;;;39.30;30.60;;;;;;;28.55;50.05;100052.80;108062;1253;60328;-69
2023/06/21 00:23:45;;;;;;;42.90;30.80;;;;;;;28.42;50.21;100055.08;108148;1254;60357;-69
2023/06/21 00:26:11;;;;;;;35.20;28.60;;;;;;;28.45;50.26;100051.17;108101;1254;60339;-70
2023/06/21 00:28:38;;;;;;;41.20;30.50;;;;;;;28.49;50.40;100053.20;108113;1254;60476;-68
2023/06/21 00:31:08;;;;;;;36.00;29.60;;;;;;;28.44;50.29;100050.55;108207;1256;60316;-67
2023/06/21 00:33:35;;;;;;;42.00;32.10;;;;;;;28.38;50.54;100052.31;108196;1254;72665;-69
2023/06/21 00:36:01;;;;;;;42.30;32.20;;;;;;;27.84;51.88;100050.61;108235;1254;60329;-69
2023/06/21 00:38:34;;;;;;;33.00;26.40;;;;;;;27.99;51.58;100055.86;108193;1254;72662;-67
2023/06/21 00:41:04;;;;;;;36.90;30.10;;;;;;;28.12;51.08;100053.02;108283;1252;61863;-69
2023/06/21 00:43:31;;;;;;;34.10;28.90;;;;;;;28.06;51.38;100054.15;108294;1254;60350;-67
2023/06/21 00:45:58;;;;;;;37.50;31.30;;;;;;;28.00;51.45;100053.73;107992;1253;73985;-68
2023/06/21 00:48:28;;;;;;;39.70;30.90;;;;;;;28.08;51.40;100052.12;108308;1254;70354;-68
2023/06/21 00:50:58;;;;;;;31.70;26.20;;;;;;;28.05;51.42;100048.95;108280;1254;72622;-68
2023/06/21 00:53:27;;;;;;;32.50;27.50;;;;;;;28.14;50.98;100046.91;108277;1254;61960;-68
2023/06/21 00:55:55;;;;;;;36.50;30.10;;;;;;;28.05;51.10;100048.50;108344;1252;60168;-71
2023/06/21 00:58:23;;;;;;;43.00;30.70;;;;;;;28.03;51.24;100047.02;108265;1252;73628;-68
2023/06/21 01:00:52;;;;;;;43.60;33.10;;;;;;;28.15;50.90;100045.14;108298;1254;70245;-68
2023/06/21 01:03:22;;;;;;;38.70;30.70;;;;;;;28.13;50.97;100041.55;108269;1253;72521;-68
2023/06/21 01:06:11;;;;;;;40.60;31.20;;;;;;;28.03;51.13;100043.60;108213;1253;62464;-66
2023/06/21 01:08:48;;;;;;;42.30;33.10;;;;;;;28.01;51.39;100040.45;108035;1254;59095;-68
2023/06/21 01:11:53;;;;;;;38.70;30.90;;;;;;;28.05;51.30;100034.86;108281;1254;73618;-71
2023/06/21 01:14:37;;;;;;;43.80;32.00;;;;;;;28.01;51.35;100033.20;108163;1256;69367;-70
2023/06/21 01:17:03;;;;;;;41.30;32.80;;;;;;;27.89;51.65;100033.65;108226;1253;72997;-66
2023/06/21 01:19:41;;;;;;;40.40;31.60;;;;;;;27.85;51.69;100034.08;108002;1257;62365;-68
2023/06/21 01:22:23;;;;;;;43.70;32.60;;;;;;;27.99;51.61;100039.35;108170;1253;60024;-70
2023/06/21 01:25:22;;;;;;;38.30;29.90;;;;;;;28.01;51.26;100045.14;108189;1254;73880;-68
2023/06/21 01:28:02;;;;;;;34.80;28.70;;;;;;;27.87;51.60;100045.97;107888;1254;70373;-69
2023/06/21 01:30:30;;;;;;;33.80;27.90;;;;;;;27.72;51.82;100042.66;108252;1254;72365;-68
2023/06/21 01:32:56;;;;;;;40.70;31.40;;;;;;;27.55;52.13;100040.51;108103;1257;61668;-68
2023/06/21 01:35:24;;;;;;;40.00;32.10;;;;;;;27.42;52.70;100039.92;108285;1256;60405;-69
2023/06/21 01:37:50;;;;;;;43.10;34.10;;;;;;;27.58;52.33;100036.48;108258;1254;72646;-71
2023/06/21 01:40:19;;;;;;;38.70;31.00;;;;;;;27.73;52.01;100041.48;108238;1254;70152;-68
2023/06/21 01:42:46;;;;;;;34.40;26.00;;;;;;;27.88;51.55;100046.02;108205;1253;72450;-70
2023/06/21 01:45:13;;;;;;;38.70;30.60;;;;;;;27.93;51.27;100049.78;108242;1254;61958;-68
2023/06/21 01:47:40;;;;;;;42.00;32.20;;;;;;;27.74;51.79;100048.62;107995;1253;60475;-69
2023/06/21 01:50:08;;;;;;;42.80;31.70;;;;;;;27.74;51.82;100051.66;107984;1252;74239;-69
2023/06/21 01:52:35;;;;;;;43.30;31.20;;;;;;;27.67;52.00;100055.92;108238;1254;69975;-67
2023/06/21 01:55:02;;;;;;;40.40;31.10;;;;;;;27.62;52.13;100064.00;108075;1257;60505;-70
2023/06/21 01:57:29;;;;;;;41.20;32.80;;;;;;;27.56;52.21;100066.27;108078;1259;61828;-69
2023/06/21 01:59:55;;;;;;;44.60;35.00;;;;;;;27.51;52.23;100069.06;107957;1254;60360;-68
2023/06/21 02:02:22;;;;;;;45.00;35.90;;;;;;;27.44;52.61;100070.69;108066;1254;74417;-69
2023/06/21 02:04:49;;;;;;;42.70;34.50;;;;;;;27.40;52.85;100067.83;108072;1254;70355;-68
2023/06/21 02:07:15;;;;;;;35.30;28.20;;;;;;;27.39;52.78;100071.50;108047;1254;60421;-68
2023/06/21 02:09:43;;;;;;;44.50;34.50;;;;;;;27.49;52.58;100074.11;108023;1254;61815;-70
2023/06/21 02:12:10;;;;;;;45.20;35.60;;;;;;;27.49;52.83;100076.14;108235;1252;59990;-69
2023/06/21 02:14:38;;;;;;;46.40;36.80;;;;;;;27.37;53.11;100079.70;108117;1259;73804;-69
2023/06/21 02:17:04;;;;;;;52.50;36.50;;;;;;;27.34;53.36;100080.38;107968;1254;70195;-68
2023/06/21 02:19:31;;;;;;;41.40;33.60;;;;;;;27.36;53.54;100081.80;108126;1257;72593;-68
2023/06/21 02:21:58;;;;;;;44.60;35.30;;;;;;;27.44;53.41;100080.55;108303;1253;62002;-69
2023/06/21 02:24:25;;;;;;;42.90;34.40;;;;;;;27.42;53.66;100083.29;108165;1253;60454;-69
2023/06/21 02:26:51;;;;;;;44.60;35.50;;;;;;;27.38;53.76;100082.44;108305;1254;60310;-67
2023/06/21 02:29:18;;;;;;;43.60;34.40;;;;;;;27.37;53.70;100079.46;108285;1254;69075;-68
2023/06/21 02:31:44;;;;;;;37.00;28.20;;;;;;;27.47;53.48;100077.99;108186;1256;60440;-69
2023/06/21 02:34:13;;;;;;;41.20;32.40;;;;;;;27.51;53.43;100083.30;108321;1254;60918;-68
2023/06/21 02:36:53;;;;;;;42.30;33.60;;;;;;;27.64;53.14;100083.24;108035;1257;59287;-68
2023/06/21 02:42:10;;;;;;;42.80;35.70;;;;;;;24.27;63.59;100098.38;104977;1294;601167;-69
2023/06/21 02:44:37;;;;;;;43.40;33.20;;;;;;;25.12;61.06;100098.08;107254;1268;61697;-69
2023/06/21 02:47:05;;;;;;;43.50;33.90;;;;;;;25.54;59.83;100098.54;107408;1261;60032;-68
2023/06/21 02:49:36;;;;;;;42.50;35.40;;;;;;;25.73;59.49;100095.34;107457;1264;71546;-68
2023/06/21 02:52:04;;;;;;;44.50;35.30;;;;;;;25.87;59.32;100102.80;107481;1263;70095;-69
2023/06/21 02:54:32;;;;;;;45.00;34.50;;;;;;;25.91;59.13;100108.67;107431;1264;72640;-69
2023/06/21 02:56:59;;;;;;;44.00;34.20;;;;;;;25.86;59.33;100110.05;107431;1261;171183;-68
2023/06/21 02:59:28;;;;;;;43.10;33.70;;;;;;;26.28;58.40;100107.92;107634;1260;59217;-69
2023/06/21 03:01:59;;;;;;;41.70;32.90;;;;;;;26.41;57.85;100111.08;107584;1260;72317;-70
2023/06/21 03:04:27;;;;;;;44.80;34.30;;;;;;;26.48;57.81;100111.29;107613;1260;69650;-69
2023/06/21 03:06:55;;;;;;;34.90;27.90;;;;;;;26.50;57.69;100111.61;107551;1260;71466;-70
2023/06/21 03:09:23;;;;;;;43.70;34.00;;;;;;;26.47;57.54;100112.80;107579;1260;62088;-69
2023/06/21 03:11:50;;;;;;;46.70;33.30;;;;;;;26.36;58.04;100113.57;107585;1261;60028;-68
2023/06/21 03:14:17;;;;;;;37.60;30.40;;;;;;;26.33;58.43;100119.56;107603;1261;73114;-68
2023/06/21 03:16:45;;;;;;;41.90;33.10;;;;;;;26.48;57.87;100118.45;107475;1261;71090;-69
2023/06/21 03:19:13;;;;;;;42.00;34.20;;;;;;;26.52;58.01;100118.41;107625;1261;71881;-69
2023/06/21 03:21:41;;;;;;;40.00;33.20;;;;;;;26.48;57.91;100120.80;107630;1260;61772;-70
2023/06/21 03:24:08;;;;;;;44.40;33.30;;;;;;;26.40;57.99;100123.66;107560;1261;59998;-68
2023/06/21 03:26:36;;;;;;;41.20;32.10;;;;;;;26.41;58.28;100123.48;107456;1259;73030;-69
2023/06/21 03:29:06;;;;;;;44.10;32.60;;;;;;;26.58;57.84;100119.28;107569;1261;70677;-68
2023/06/21 03:31:34;;;;;;;40.00;31.10;;;;;;;26.65;57.64;100119.03;107524;1260;72749;-69
2023/06/21 03:34:02;;;;;;;38.50;32.50;;;;;;;26.83;57.11;100115.77;107564;1260;63783;-69
2023/06/21 03:36:30;;;;;;;41.00;31.70;;;;;;;26.85;57.02;100116.92;107557;1260;61432;-69
2023/06/21 03:38:57;;;;;;;37.90;31.30;;;;;;;26.91;57.09;100112.54;107512;1260;73201;-71
2023/06/21 03:41:25;;;;;;;39.90;32.70;;;;;;;27.05;56.84;100112.14;107577;1260;70230;-68
2023/06/21 03:43:53;;;;;;;41.40;31.80;;;;;;;26.96;57.04;100114.79;107508;1261;71390;-69
2023/06/21 03:46:20;;;;;;;39.80;30.90;;;;;;;27.03;56.92;100120.27;107499;1261;61700;-68
2023/06/21 03:48:51;;;;;;;38.80;30.50;;;;;;;27.07;57.10;100124.38;107454;1266;59628;-69
2023/06/21 03:51:21;;;;;;;;;;;;;;;27.25;57.15;100125.60;107515;1260;73185;-70
2023/06/21 03:53:50;;;;;;;35.20;28.10;;;;;;;27.38;56.53;100122.65;107558;1260;68929;-69
2023/06/21 03:56:18;;;;;;;33.90;27.60;;;;;;;27.61;56.07;100126.63;107576;1260;71627;-69
2023/06/21 03:58:46;;;;;;;29.50;25.70;;;;;;;27.84;55.50;100127.06;107569;1262;61170;-69
2023/06/21 04:01:13;;;;;;;36.00;27.80;;;;;;;27.94;54.66;100124.38;107482;1260;59669;-72
2023/06/21 04:03:40;;;;;;;31.80;25.70;;;;;;;27.86;54.81;100127.93;107527;1260;73048;-70
2023/06/21 04:06:08;;;;;;;28.70;23.70;;;;;;;27.78;54.81;100128.95;107485;1260;70585;-70
2023/06/21 04:08:35;;;;;;;36.10;25.00;;;;;;;28.06;54.41;100133.30;107441;1260;72448;-69
2023/06/21 04:11:02;;;;;;;30.50;24.10;;;;;;;28.35;53.72;100136.08;107503;1260;63873;-69
2023/06/21 04:13:30;;;;;;;31.50;27.00;;;;;;;28.36;53.72;100141.08;107921;1257;60049;-69
2023/06/21 04:15:57;;;;;;;35.20;27.30;;;;;;;28.46;53.72;100139.04;107826;1263;72055;-67
2023/06/21 04:18:25;;;;;;;35.40;26.10;;;;;;;28.58;53.44;100145.36;107765;1257;68579;-67
2023/06/21 04:20:52;;;;;;;35.60;25.60;;;;;;;28.49;53.68;100153.09;107800;1261;72923;-69
2023/06/21 04:23:20;;;;;;;29.40;25.10;;;;;;;28.51;53.90;100155.08;107886;1256;61689;-69
2023/06/21 04:25:48;;;;;;;30.50;24.90;;;;;;;28.76;53.27;100158.45;108070;1254;59972;-69
2023/06/21 04:28:16;;;;;;;30.10;25.40;;;;;;;28.77;53.07;100155.61;108154;1253;73560;-69
2023/06/21 04:30:43;;;;;;;30.90;23.30;;;;;;;28.76;53.07;100162.55;108022;1253;69323;-70
2023/06/21 04:33:11;;;;;;;30.70;25.80;;;;;;;28.65;53.26;100162.92;108094;1254;72663;-70
2023/06/21 04:35:38;;;;;;;25.90;21.30;;;;;;;28.74;53.01;100169.77;107965;1254;61633;-67
2023/06/21 04:38:05;;;;;;;32.40;25.20;;;;;;;28.89;52.21;100172.44;108198;1253;59546;-69
2023/06/21 04:40:33;;;;;;;30.30;25.30;;;;;;;28.79;52.48;100173.92;108087;1253;72971;-68
2023/06/21 04:43:05;;;;;;;26.90;24.00;;;;;;;28.29;53.48;100172.33;108095;1254;68991;-67
2023/06/21 04:45:33;;;;;;;34.50;27.30;;;;;;;28.40;53.70;100176.82;108089;1257;71472;-67
2023/06/21 04:48:00;;;;;;;30.10;26.00;;;;;;;28.48;53.39;100180.64;108088;1253;61756;-69
2023/06/21 04:50:28;;;;;;;28.30;24.70;;;;;;;28.39;53.53;100180.63;108079;1254;59555;-70
2023/06/21 04:52:59;;;;;;;34.40;25.50;;;;;;;28.52;53.14;100182.69;108080;1253;73118;-69
2023/06/21 04:55:27;;;;;;;29.10;24.30;;;;;;;28.64;53.01;100179.79;108099;1254;70545;-69
2023/06/21 04:57:55;;;;;;;29.60;24.20;;;;;;;28.65;52.93;100178.23;108041;1254;71058;-69
2023/06/21 05:00:23;;;;;;;32.50;23.90;;;;;;;28.74;52.54;100177.42;108094;1254;60427;-67
2023/06/21 05:02:50;;;;;;;32.50;24.00;;;;;;;28.85;52.41;100174.92;108072;1254;59955;-68
2023/06/21 05:05:18;;;;;;;31.90;25.30;;;;;;;28.80;52.71;100174.03;108096;1254;72869;-70
2023/06/21 05:07:46;;;;;;;27.00;22.70;;;;;;;28.91;52.38;100179.23;108164;1254;70893;-69
2023/06/21 05:10:13;;;;;;;25.80;21.20;;;;;;;28.94;52.08;100182.21;108058;1254;71364;-68
2023/06/21 05:12:41;;;;;;;34.90;25.60;;;;;;;29.01;51.96;100183.54;108046;1257;61788;-70
2023/06/21 05:15:09;;;;;;;30.20;25.60;;;;;;;28.92;52.51;100187.88;108087;1253;59038;-69
2023/06/21 05:17:37;;;;;;;31.80;25.70;;;;;;;29.02;52.47;100180.36;108171;1254;72016;-70
2023/06/21 05:20:08;;;;;;;31.20;26.50;;;;;;;29.05;52.66;100181.48;108103;1254;70176;-69
2023/06/21 05:22:42;;;;;;;27.70;23.60;;;;;;;29.27;52.19;100175.73;108028;1254;71385;-69
2023/06/21 05:25:10;;;;;;;33.60;26.00;;;;;;;29.58;51.26;100177.27;108079;1253;62254;-69
2023/06/21 05:27:42;;;;;;;26.20;21.40;;;;;;;30.03;50.74;100177.70;108060;1254;60126;-70
2023/06/21 05:30:10;;;;;;;29.80;23.50;;;;;;;30.42;49.88;100177.45;108193;1256;72970;-70
2023/06/21 05:32:40;;;;;;;29.80;23.50;;;;;;;30.84;48.91;100179.40;108196;1253;68544;-70
2023/06/21 05:35:08;;;;;;;29.80;24.40;;;;;;;31.08;48.33;100183.24;108152;1253;72584;-70
2023/06/21 05:37:39;;;;;;;29.80;24.20;;;;;;;31.56;46.93;100183.14;108127;1254;61546;-69
2023/06/21 05:40:09;;;;;;;29.30;24.40;;;;;;;31.65;46.74;100186.14;108139;1253;60002;-69
2023/06/21 05:42:37;;;;;;;28.20;22.80;;;;;;;31.96;46.08;100183.90;108119;1254;72785;-71
2023/06/21 05:45:08;;;;;;;25.80;23.00;;;;;;;32.38;45.08;100189.65;108033;1254;69993;-71
2023/06/21 05:47:38;;;;;;;28.60;22.50;;;;;;;32.68;44.34;100189.55;108122;1254;72772;-71
2023/06/21 05:50:08;;;;;;;25.90;22.60;;;;;;;33.07;43.65;100186.43;108089;1257;59826;-69
2023/06/21 05:53:05;;;;;;;25.90;21.50;;;;;;;33.08;42.88;100183.83;108096;1254;60599;-70
2023/06/21 05:55:42;;;;;;;23.60;20.00;;;;;;;33.46;42.07;100180.17;108098;1254;72988;-69
2023/06/21 05:58:43;;;;;;;26.20;20.00;;;;;;;33.57;41.86;100176.40;108063;1253;69763;-69
2023/06/21 06:01:20;;;;;;;21.40;18.90;;;;;;;33.92;40.54;100178.59;108015;1254;72676;-70
2023/06/21 06:07:39;;;;;;;22.90;16.30;;;;;;;34.86;38.06;100178.44;108105;1253;59237;-70
2023/06/21 06:10:21;;;;;;;19.70;17.50;;;;;;;35.12;37.45;100181.27;108050;1254;64660;-70
2023/06/21 06:13:59;;;;;;;20.50;16.70;;;;;;;35.56;36.05;100184.04;108055;1253;61479;-69
2023/06/21 06:17:22;;;;;;;22.70;17.60;;;;;;;36.02;35.10;100183.63;108170;1254;63845;-69
2023/06/21 06:21:00;;;;;;;22.30;16.70;;;;;;;36.48;34.86;100184.23;108246;1253;59579;-70
2023/06/21 06:24:27;;;;;;;24.50;16.50;;;;;;;36.83;33.71;100179.67;108232;1254;59417;-70
2023/06/21 06:27:35;;;;;;;21.50;14.90;;;;;;;36.71;32.60;100178.69;108141;1254;62897;-71
2023/06/21 06:31:00;;;;;;;20.80;17.00;;;;;;;36.51;33.29;100181.27;108210;1254;60462;-69
2023/06/21 06:34:07;;;;;;;20.00;16.40;;;;;;;36.48;33.91;100182.61;108248;1253;62579;-69
2023/06/21 06:41:01;;;;;;;27.10;18.20;;;;;;;37.59;32.55;100188.76;108168;1254;59122;-69
2023/06/21 06:43:53;;;;;;;17.70;15.80;;;;;;;37.77;32.28;100184.37;108231;1253;62814;-71
2023/06/21 06:47:28;;;;;;;17.90;16.00;;;;;;;37.94;31.80;100178.15;108202;1253;60099;-70
2023/06/21 06:54:40;;;;;;;18.30;16.10;;;;;;;37.94;31.04;100183.63;107692;1257;59711;-70
2023/06/21 06:57:07;;;;;;;19.80;13.50;;;;;;;37.96;30.99;100189.28;107698;1257;59759;-70
2023/06/21 06:59:49;;;;;;;12.40;11.10;;;;;;;37.77;30.18;100192.83;107714;1257;64205;-69
2023/06/21 07:02:16;;;;;;;14.10;11.30;;;;;;;37.97;29.13;100191.69;108013;1257;61462;-69
2023/06/21 07:04:44;;;;;;;13.40;12.00;;;;;;;38.14;28.91;100196.11;108030;1254;63845;-71
2023/06/21 07:07:12;;;;;;;12.80;11.30;;;;;;;38.17;28.62;100197.50;108148;1253;60406;-70
2023/06/21 07:09:40;;;;;;;13.70;12.20;;;;;;;38.01;28.28;100199.88;108180;1251;59115;-71
2023/06/21 07:23:23;;;;;;;13.50;12.10;;;;;;;37.59;29.76;100205.82;105408;1286;604406;-71
2023/06/21 07:25:54;;;;;;;13.90;11.60;;;;;;;38.87;28.11;100203.86;107020;1270;128523;-70
2023/06/21 07:28:22;;;;;;;17.50;11.90;;;;;;;38.90;27.49;100199.08;107197;1267;59109;-72
2023/06/21 07:30:49;;;;;;;13.50;9.90;;;;;;;38.81;27.90;100199.24;107304;1266;62056;-70
2023/06/21 07:33:17;;;;;;;10.60;9.40;;;;;;;39.02;27.25;100202.18;107334;1266;61474;-70
2023/06/21 07:35:44;;;;;;;12.10;10.20;;;;;;;39.66;25.36;100200.64;108090;1259;63683;-69
2023/06/21 07:38:11;;;;;;;15.00;9.80;;;;;;;39.91;25.52;100198.92;108007;1259;59329;-70
2023/06/21 07:40:39;;;;;;;13.50;9.60;;;;;;;40.07;25.65;100200.96;108037;1259;59140;-71
2023/06/21 07:43:07;;;;;;;11.70;8.80;;;;;;;40.11;24.85;100201.14;108084;1259;63346;-70
2023/06/21 07:45:34;;;;;;;12.70;10.10;;;;;;;39.89;24.72;100202.07;108019;1259;61303;-72
2023/06/21 07:48:05;;;;;;;11.10;9.50;;;;;;;39.94;24.69;100201.27;108004;1259;72628;-71
2023/06/21 07:50:33;;;;;;;13.40;12.10;;;;;;;40.10;24.85;100204.58;107965;1257;59122;-70
2023/06/21 07:53:03;;;;;;;17.00;12.90;;;;;;;40.27;25.73;100205.53;107985;1254;59374;-70
2023/06/21 07:55:31;;;;;;;17.40;14.20;;;;;;;40.49;25.97;100203.42;108038;1254;62797;-70
2023/06/21 07:57:58;;;;;;;18.00;12.80;;;;;;;40.49;26.13;100209.60;107900;1255;61410;-69
2023/06/21 08:00:26;;;;;;;14.40;12.60;;;;;;;40.80;25.73;100208.90;107990;1254;63679;-69
2023/06/21 08:02:57;;;;;;;14.30;12.20;;;;;;;40.95;25.26;100213.71;108113;1254;59108;-71
2023/06/21 08:05:24;;;;;;;17.90;14.50;;;;;;;40.96;25.15;100214.60;108020;1255;59134;-71
2023/06/21 08:07:53;;;;;;;13.30;11.90;;;;;;;40.73;25.30;100212.73;108008;1254;64121;-69
2023/06/21 08:10:22;;;;;;;;;;;;;;;40.29;25.38;100215.05;107995;1259;61350;-71
2023/06/21 08:12:50;;;;;;;12.60;10.80;;;;;;;40.22;25.14;100218.80;108042;1256;62500;-72
2023/06/21 08:15:17;;;;;;;11.70;9.90;;;;;;;40.28;24.80;100213.85;107923;1254;59514;-71
2023/06/21 08:17:44;;;;;;;13.00;10.70;;;;;;;40.30;24.25;100207.15;107954;1260;59535;-69
2023/06/21 08:20:12;;;;;;;14.00;11.00;;;;;;;40.43;24.62;100205.70;107955;1255;64107;-71
2023/06/21 08:22:40;;;;;;;12.20;11.00;;;;;;;40.39;24.61;100202.05;107859;1259;60450;-70
2023/06/21 08:25:07;;;;;;;15.10;13.50;;;;;;;40.49;25.28;100198.13;107998;1259;62479;-71
2023/06/21 08:27:35;;;;;;;16.80;14.10;;;;;;;40.68;25.50;100198.95;107884;1260;59125;-71
2023/06/21 08:30:06;;;;;;;16.80;13.70;;;;;;;40.80;25.05;100200.46;107810;1256;59543;-71
2023/06/21 08:32:34;;;;;;;18.90;13.80;;;;;;;40.86;24.97;100200.82;107796;1257;65162;-70
2023/06/21 08:35:01;;;;;;;16.00;13.00;;;;;;;40.89;24.79;100195.07;107814;1256;60118;-70
2023/06/21 08:37:29;;;;;;;14.90;12.20;;;;;;;40.81;25.04;100194.63;107822;1261;63853;-71
2023/06/21 08:39:57;;;;;;;14.50;12.90;;;;;;;41.01;24.98;100198.01;107859;1258;59537;-71
2023/06/21 08:42:26;;;;;;;15.80;12.00;;;;;;;41.05;24.01;100194.52;107941;1257;59513;-71
2023/06/21 08:44:54;;;;;;;15.20;12.80;;;;;;;40.99;24.11;100191.99;107732;1255;62903;-72
2023/06/21 08:47:26;;;;;;;15.60;12.00;;;;;;;40.98;24.20;100195.13;107815;1257;60105;-71
2023/06/21 08:49:57;;;;;;;12.90;11.60;;;;;;;40.72;23.71;100198.75;107860;1257;71417;-70
2023/06/21 08:52:24;;;;;;;13.30;12.00;;;;;;;40.62;23.81;100199.81;107837;1257;59656;-70
2023/06/21 08:55:00;;;;;;;14.20;12.00;;;;;;;40.49;23.70;100199.45;107663;1257;59511;-71
2023/06/21 08:57:28;;;;;;;13.90;11.30;;;;;;;40.12;23.82;100196.73;107891;1257;64126;-70
2023/06/21 09:00:03;;;;;;;13.90;12.20;;;;;;;40.02;24.31;100194.20;107945;1261;61468;-71
2023/06/21 09:02:31;;;;;;;12.50;11.20;;;;;;;40.34;24.65;100197.48;107924;1261;63781;-70
2023/06/21 09:05:02;;;;;;;12.10;10.90;;;;;;;40.72;23.70;100197.92;107854;1257;59121;-70
2023/06/21 09:07:30;;;;;;;14.60;11.00;;;;;;;41.09;23.48;100199.15;107805;1256;59711;-70
2023/06/21 09:09:58;;;;;;;12.30;11.00;;;;;;;41.35;22.77;100198.98;107718;1257;64163;-71
2023/06/21 09:12:26;;;;;;;12.20;10.90;;;;;;;41.37;22.63;100194.20;107872;1257;61562;-70
2023/06/21 09:14:54;;;;;;;13.70;11.90;;;;;;;41.42;23.15;100190.60;107868;1258;63734;-72
2023/06/21 09:17:22;;;;;;;13.90;12.30;;;;;;;41.39;23.58;100191.34;107864;1258;59627;-72
2023/06/21 09:19:49;;;;;;;13.40;11.60;;;;;;;41.19;23.74;100188.12;107916;1257;59526;-73
2023/06/21 09:22:17;;;;;;;14.20;11.50;;;;;;;40.91;24.00;100183.67;107744;1257;64210;-73
2023/06/21 09:24:44;;;;;;;11.20;10.00;;;;;;;41.06;23.43;100184.40;107703;1260;61433;-69
2023/06/21 09:27:12;;;;;;;14.40;10.90;;;;;;;41.03;22.43;100185.77;107881;1257;63860;-70
2023/06/21 09:29:39;;;;;;;11.40;10.10;;;;;;;40.89;22.28;100189.88;107901;1257;59600;-71
2023/06/21 09:32:07;;;;;;;11.20;10.00;;;;;;;40.73;22.89;100181.60;107914;1255;60874;-70
2023/06/21 09:34:34;;;;;;;11.20;10.10;;;;;;;40.58;22.81;100180.64;107868;1257;64088;-72
2023/06/21 09:37:02;;;;;;;11.70;10.30;;;;;;;40.67;22.99;100184.54;107922;1260;61350;-71
2023/06/21 09:39:29;;;;;;;11.80;10.60;;;;;;;40.80;23.07;100189.80;107984;1258;62430;-71
2023/06/21 09:41:57;;;;;;;15.80;10.50;;;;;;;40.78;23.14;100195.31;107973;1257;60022;-71
2023/06/21 09:44:24;;;;;;;11.20;10.20;;;;;;;40.75;23.25;100195.31;107701;1257;59530;-71
2023/06/21 09:46:58;;;;;;;13.00;11.40;;;;;;;40.43;23.32;100197.58;107993;1259;62873;-70
2023/06/21 09:49:27;;;;;;;13.40;10.90;;;;;;;39.76;23.98;100198.75;107964;1259;61511;-70
2023/06/21 09:51:55;;;;;;;13.40;11.90;;;;;;;39.20;24.47;100197.84;107967;1258;62538;-71
2023/06/21 09:54:22;;;;;;;15.60;11.80;;;;;;;38.97;25.16;100198.58;107838;1257;59634;-70
2023/06/21 09:57:02;;;;;;;13.60;11.40;;;;;;;39.09;24.91;100198.71;107917;1259;59669;-71
2023/06/21 09:59:30;;;;;;;13.20;11.70;;;;;;;39.42;24.46;100193.66;107821;1257;64385;-71
2023/06/21 10:01:57;;;;;;;13.90;12.30;;;;;;;39.84;23.94;100188.69;107757;1257;60225;-71
2023/06/21 10:11:01;;;;;;;11.50;10.20;;;;;;;40.13;22.87;100178.92;107893;1257;59480;-72
2023/06/21 10:13:33;;;;;;;11.90;10.70;;;;;;;40.24;23.05;100178.80;107856;1256;62904;-71
2023/06/21 10:16:01;;;;;;;11.50;10.20;;;;;;;40.19;23.14;100180.30;107880;1256;61801;-70
2023/06/21 10:18:29;;;;;;;13.00;10.00;;;;;;;39.68;23.42;100183.48;107884;1260;63737;-71
2023/06/21 10:21:01;;;;;;;14.40;10.20;;;;;;;39.20;23.89;100183.31;107756;1256;59229;-71
2023/06/21 10:23:31;;;;;;;11.50;9.10;;;;;;;39.17;23.93;100183.19;107913;1257;57844;-74
2023/06/21 10:26:01;;;;;;;12.10;9.60;;;;;;;39.29;23.60;100180.84;107933;1257;62820;-71
2023/06/21 10:28:29;;;;;;;10.60;9.60;;;;;;;39.41;23.41;100180.50;107928;1258;61376;-71
2023/06/21 10:30:56;;;;;;;12.10;10.20;;;;;;;39.60;22.84;100178.60;107719;1255;63765;-70
2023/06/21 10:33:26;;;;;;;12.20;10.10;;;;;;;39.54;23.26;100179.30;107677;1256;59138;-72
2023/06/21 10:35:53;;;;;;;10.60;9.10;;;;;;;39.37;23.37;100180.04;107811;1257;59623;-70
2023/06/21 10:38:36;;;;;;;11.70;8.70;;;;;;;39.19;23.51;100179.30;107965;1257;64117;-71
2023/06/21 10:41:04;;;;;;;10.30;8.50;;;;;;;39.28;22.87;100181.48;107697;1255;60245;-69
2023/06/21 10:43:32;;;;;;;10.80;8.00;;;;;;;39.23;22.50;100179.17;107826;1257;63152;-72
2023/06/21 10:45:59;;;;;;;8.40;7.60;;;;;;;39.12;22.28;100181.75;107806;1254;59615;-69
2023/06/21 10:48:27;;;;;;;8.90;8.00;;;;;;;39.28;21.87;100180.60;107948;1257;59008;-70
2023/06/21 10:50:54;;;;;;;12.00;9.20;;;;;;;39.48;21.98;100175.05;107957;1258;63657;-70
2023/06/21 10:53:23;;;;;;;15.50;9.40;;;;;;;39.48;22.77;100174.08;107960;1258;61417;-70
2023/06/21 10:55:50;;;;;;;17.30;10.00;;;;;;;39.48;23.15;100175.06;107701;1260;63676;-71
2023/06/21 10:58:19;;;;;;;10.50;8.30;;;;;;;39.47;23.41;100170.04;107833;1257;59535;-71
2023/06/21 11:00:47;;;;;;;10.40;9.30;;;;;;;39.27;23.34;100163.73;107957;1256;59534;-71
2023/06/21 11:03:16;;;;;;;11.90;9.60;;;;;;;39.25;23.63;100163.68;108013;1255;64435;-70
2023/06/21 11:05:44;;;;;;;11.80;9.60;;;;;;;39.35;23.78;100158.66;107983;1260;61400;-70
2023/06/21 11:08:11;;;;;;;10.20;9.00;;;;;;;39.59;23.24;100158.08;107994;1257;62707;-71
2023/06/21 11:10:39;;;;;;;9.80;8.80;;;;;;;40.00;22.47;100153.90;107751;1255;59718;-71
2023/06/21 11:13:07;;;;;;;14.70;8.50;;;;;;;40.54;21.52;100152.09;108010;1259;59572;-70
2023/06/21 11:15:38;;;;;;;9.60;7.80;;;;;;;40.73;21.28;100157.09;108018;1256;64141;-71
2023/06/21 11:18:07;;;;;;;8.90;7.90;;;;;;;40.60;21.36;100155.62;108014;1257;62003;-71
2023/06/21 11:20:45;;;;;;;9.50;7.30;;;;;;;40.29;21.73;100155.26;107853;1257;64872;-71
2023/06/21 11:23:17;;;;;;;12.80;7.40;;;;;;;40.10;21.50;100161.27;108009;1257;59536;-71
2023/06/21 11:25:54;;;;;;;9.10;7.80;;;;;;;39.94;21.72;100158.77;107885;1257;59468;-69
2023/06/21 11:28:23;;;;;;;10.20;7.40;;;;;;;39.84;21.87;100163.39;107809;1257;64058;-71
2023/06/21 11:31:06;;;;;;;9.70;7.00;;;;;;;39.60;21.68;100164.48;107869;1257;60105;-73
2023/06/21 11:33:43;;;;;;;9.20;7.30;;;;;;;39.46;21.91;100163.02;107821;1257;63741;-70
2023/06/21 11:36:10;;;;;;;10.20;6.80;;;;;;;39.12;21.82;100163.48;107878;1257;60318;-71
2023/06/21 11:38:38;;;;;;;9.00;7.00;;;;;;;38.84;21.94;100161.61;107788;1256;60300;-70
2023/06/21 11:41:32;;;;;;;8.80;6.90;;;;;;;38.77;21.61;100158.10;107634;1256;63661;-70
2023/06/21 11:43:59;;;;;;;8.30;6.80;;;;;;;38.90;20.85;100153.38;107848;1257;61365;-69
2023/06/21 11:46:27;;;;;;;9.50;7.50;;;;;;;39.12;20.86;100152.80;107905;1257;63704;-71
2023/06/21 11:48:58;;;;;;;12.00;7.30;;;;;;;39.54;20.86;100154.11;107556;1257;60776;-72
2023/06/21 11:51:31;;;;;;;8.10;6.30;;;;;;;39.64;21.19;100154.04;107786;1257;60361;-69
2023/06/21 11:54:01;;;;;;;8.90;6.90;;;;;;;39.67;20.77;100157.33;107910;1257;66822;-71
2023/06/21 11:56:29;;;;;;;8.00;6.50;;;;;;;39.63;20.56;100157.27;107762;1257;61836;-70